sensor_id;sensor_type;location;lat;lon;timestamp;pressure;altitude;pressure_sealevel;temperature;humidity
55470;BME280;41334;47.872;16.384;2023-08-17T00:04:40;99250.44;;;17.22;72.40
55470;BME280;41334;47.872;16.384;2023-08-17T00:09:42;99233.03;;;17.28;72.03
55470;BME280;41334;47.872;16.384;2023-08-17T00:14:44;99235.38;;;17.26;71.18
55470;BME280;41334;47.872;16.384;2023-08-17T00:19:46;99226.97;;;17.26;70.63
55470;BME280;41334;47.872;16.384;2023-08-17T00:24:48;99229.31;;;17.24;72.18
55470;BME280;41334;47.872;16.384;2023-08-17T00:29:50;99238.38;;;17.18;70.67
55470;BME280;41334;47.872;16.384;2023-08-17T00:34:52;99234.94;;;17.08;71.47
55470;BME280;41334;47.872;16.384;2023-08-17T00:39:54;99236.13;;;17.07;71.76
55470;BME280;41334;47.872;16.384;2023-08-17T00:44:56;99240.81;;;17.03;72.52
55470;BME280;41334;47.872;16.384;2023-08-17T00:49:58;99250.66;;;16.97;71.37
55470;BME280;41334;47.872;16.384;2023-08-17T00:55:00;99255.31;;;16.93;71.88
55470;BME280;41334;47.872;16.384;2023-08-17T01:00:02;99248.00;;;16.89;72.07
55470;BME280;41334;47.872;16.384;2023-08-17T01:05:07;99249.19;;;16.88;74.54
55470;BME280;41334;47.872;16.384;2023-08-17T01:10:09;99249.81;;;16.81;73.08
55470;BME280;41334;47.872;16.384;2023-08-17T01:15:15;99258.47;;;16.76;74.22
55470;BME280;41334;47.872;16.384;2023-08-17T01:20:19;99248.34;;;16.71;74.85
55470;BME280;41334;47.872;16.384;2023-08-17T01:25:22;99249.38;;;16.67;73.48
55470;BME280;41334;47.872;16.384;2023-08-17T01:30:24;99248.03;;;16.61;73.96
55470;BME280;41334;47.872;16.384;2023-08-17T01:35:38;99257.13;;;16.57;73.41
55470;BME280;41334;47.872;16.384;2023-08-17T01:40:42;99257.47;;;16.56;73.21
55470;BME280;41334;47.872;16.384;2023-08-17T01:45:46;99255.56;;;16.44;74.98
55470;BME280;41334;47.872;16.384;2023-08-17T01:50:47;99245.19;;;16.45;75.29
55470;BME280;41334;47.872;16.384;2023-08-17T01:55:49;99250.31;;;16.43;75.62
55470;BME280;41334;47.872;16.384;2023-08-17T02:00:55;99252.22;;;16.39;73.99
55470;BME280;41334;47.872;16.384;2023-08-17T02:05:56;99236.59;;;16.38;73.83
55470;BME280;41334;47.872;16.384;2023-08-17T02:10:58;99246.06;;;16.33;75.08
55470;BME280;41334;47.872;16.384;2023-08-17T02:16:00;99258.56;;;16.23;74.92
55470;BME280;41334;47.872;16.384;2023-08-17T02:21:03;99254.22;;;16.26;74.90
55470;BME280;41334;47.872;16.384;2023-08-17T02:26:05;99242.34;;;16.29;74.26
55470;BME280;41334;47.872;16.384;2023-08-17T02:31:08;99240.72;;;16.28;75.29
55470;BME280;41334;47.872;16.384;2023-08-17T02:36:09;99240.25;;;16.26;75.63
55470;BME280;41334;47.872;16.384;2023-08-17T02:41:11;99247.72;;;16.22;76.07
55470;BME280;41334;47.872;16.384;2023-08-17T02:46:14;99253.31;;;16.22;75.60
55470;BME280;41334;47.872;16.384;2023-08-17T02:51:15;99247.50;;;16.15;76.09
55470;BME280;41334;47.872;16.384;2023-08-17T02:56:17;99257.19;;;16.05;77.13
55470;BME280;41334;47.872;16.384;2023-08-17T03:01:19;99258.72;;;16.02;76.45
55470;BME280;41334;47.872;16.384;2023-08-17T03:06:23;99256.06;;;15.94;75.02
55470;BME280;41334;47.872;16.384;2023-08-17T03:11:25;99264.13;;;15.95;76.06
55470;BME280;41334;47.872;16.384;2023-08-17T03:16:27;99250.03;;;15.92;77.15
55470;BME280;41334;47.872;16.384;2023-08-17T03:21:29;99253.41;;;15.85;78.48
55470;BME280;41334;47.872;16.384;2023-08-17T03:26:31;99247.13;;;15.76;77.91
55470;BME280;41334;47.872;16.384;2023-08-17T03:31:33;99246.19;;;15.72;78.44
55470;BME280;41334;47.872;16.384;2023-08-17T03:36:35;99229.56;;;15.63;78.80
55470;BME280;41334;47.872;16.384;2023-08-17T03:41:37;99232.59;;;15.58;78.06
55470;BME280;41334;47.872;16.384;2023-08-17T03:46:40;99230.84;;;15.53;76.97
55470;BME280;41334;47.872;16.384;2023-08-17T03:51:42;99240.41;;;15.52;75.54
55470;BME280;41334;47.872;16.384;2023-08-17T03:56:45;99241.31;;;15.57;76.10
55470;BME280;41334;47.872;16.384;2023-08-17T04:01:47;99241.44;;;15.60;76.00
55470;BME280;41334;47.872;16.384;2023-08-17T04:06:49;99241.06;;;15.62;76.51
55470;BME280;41334;47.872;16.384;2023-08-17T04:11:51;99248.03;;;15.68;75.08
55470;BME280;41334;47.872;16.384;2023-08-17T04:16:53;99248.88;;;15.80;76.04
55470;BME280;41334;47.872;16.384;2023-08-17T04:21:57;99262.69;;;15.89;75.25
55470;BME280;41334;47.872;16.384;2023-08-17T04:27:00;99259.91;;;16.01;74.26
55470;BME280;41334;47.872;16.384;2023-08-17T04:32:01;99273.34;;;16.80;72.63
55470;BME280;41334;47.872;16.384;2023-08-17T04:37:05;99280.38;;;17.33;69.65
55470;BME280;41334;47.872;16.384;2023-08-17T04:42:07;99280.28;;;17.30;70.85
55470;BME280;41334;47.872;16.384;2023-08-17T04:47:09;99279.38;;;17.26;70.91
55470;BME280;41334;47.872;16.384;2023-08-17T04:52:10;99271.34;;;17.40;71.31
55470;BME280;41334;47.872;16.384;2023-08-17T04:57:13;99285.13;;;17.33;71.03
55470;BME280;41334;47.872;16.384;2023-08-17T05:02:15;99287.41;;;17.27;73.99
55470;BME280;41334;47.872;16.384;2023-08-17T05:07:17;99280.66;;;17.44;72.17
55470;BME280;41334;47.872;16.384;2023-08-17T05:12:19;99277.09;;;17.79;69.69
55470;BME280;41334;47.872;16.384;2023-08-17T05:17:21;99285.03;;;17.93;69.89
55470;BME280;41334;47.872;16.384;2023-08-17T05:22:23;99286.66;;;18.13;69.72
55470;BME280;41334;47.872;16.384;2023-08-17T05:27:25;99298.59;;;18.26;69.46
55470;BME280;41334;47.872;16.384;2023-08-17T05:32:29;99294.34;;;18.51;68.51
55470;BME280;41334;47.872;16.384;2023-08-17T05:37:30;99296.00;;;18.95;66.16
55470;BME280;41334;47.872;16.384;2023-08-17T05:42:32;99279.72;;;19.27;65.26
55470;BME280;41334;47.872;16.384;2023-08-17T05:47:34;99280.50;;;19.47;65.58
55470;BME280;41334;47.872;16.384;2023-08-17T05:52:36;99272.59;;;19.79;64.86
55470;BME280;41334;47.872;16.384;2023-08-17T05:57:38;99299.25;;;20.15;64.33
55470;BME280;41334;47.872;16.384;2023-08-17T06:02:40;99288.72;;;20.38;63.43
55470;BME280;41334;47.872;16.384;2023-08-17T06:07:42;99298.06;;;20.80;62.42
55470;BME280;41334;47.872;16.384;2023-08-17T06:12:44;99301.97;;;21.02;61.11
55470;BME280;41334;47.872;16.384;2023-08-17T06:17:46;99295.72;;;21.19;59.75
55470;BME280;41334;47.872;16.384;2023-08-17T06:22:48;99279.75;;;21.37;60.32
55470;BME280;41334;47.872;16.384;2023-08-17T06:27:51;99278.06;;;21.73;59.09
55470;BME280;41334;47.872;16.384;2023-08-17T06:32:53;99286.78;;;22.09;58.70
55470;BME280;41334;47.872;16.384;2023-08-17T06:37:55;99291.66;;;21.61;60.48
55470;BME280;41334;47.872;16.384;2023-08-17T06:42:59;99293.75;;;22.33;58.49
55470;BME280;41334;47.872;16.384;2023-08-17T06:48:01;99284.31;;;22.80;56.66
55470;BME280;41334;47.872;16.384;2023-08-17T06:53:04;99273.91;;;23.06;55.54
55470;BME280;41334;47.872;16.384;2023-08-17T06:58:08;99271.91;;;23.56;53.52
55470;BME280;41334;47.872;16.384;2023-08-17T07:03:11;99273.53;;;23.72;53.55
55470;BME280;41334;47.872;16.384;2023-08-17T07:08:13;99279.56;;;24.09;52.74
55470;BME280;41334;47.872;16.384;2023-08-17T07:13:15;99281.63;;;23.63;54.65
55470;BME280;41334;47.872;16.384;2023-08-17T07:18:17;99282.06;;;23.79;54.63
55470;BME280;41334;47.872;16.384;2023-08-17T07:23:19;99289.25;;;24.19;53.01
55470;BME280;41334;47.872;16.384;2023-08-17T07:28:20;99290.91;;;24.02;53.33
55470;BME280;41334;47.872;16.384;2023-08-17T07:33:22;99290.03;;;24.34;52.78
55470;BME280;41334;47.872;16.384;2023-08-17T07:38:24;99285.03;;;24.74;51.19
55470;BME280;41334;47.872;16.384;2023-08-17T07:43:26;99286.38;;;24.48;51.59
55470;BME280;41334;47.872;16.384;2023-08-17T07:48:28;99294.59;;;25.08;50.92
55470;BME280;41334;47.872;16.384;2023-08-17T07:53:35;99286.94;;;24.95;51.26
55470;BME280;41334;47.872;16.384;2023-08-17T07:58:36;99289.44;;;25.48;49.54
55470;BME280;41334;47.872;16.384;2023-08-17T08:03:38;99287.75;;;26.06;48.36
55470;BME280;41334;47.872;16.384;2023-08-17T08:08:40;99285.91;;;25.85;49.16
55470;BME280;41334;47.872;16.384;2023-08-17T08:13:42;99289.41;;;26.04;49.20
55470;BME280;41334;47.872;16.384;2023-08-17T08:18:44;99280.34;;;26.84;45.63
55470;BME280;41334;47.872;16.384;2023-08-17T08:23:46;99282.41;;;26.50;46.65
55470;BME280;41334;47.872;16.384;2023-08-17T08:28:48;99275.09;;;25.73;49.88
55470;BME280;41334;47.872;16.384;2023-08-17T08:33:50;99282.97;;;26.37;49.57
55470;BME280;41334;47.872;16.384;2023-08-17T08:38:54;99272.25;;;27.67;44.82
55470;BME280;41334;47.872;16.384;2023-08-17T08:43:56;99275.81;;;28.18;42.58
55470;BME280;41334;47.872;16.384;2023-08-17T08:48:58;99271.06;;;27.38;45.93
55470;BME280;41334;47.872;16.384;2023-08-17T08:54:01;99277.19;;;27.09;46.24
55470;BME280;41334;47.872;16.384;2023-08-17T08:59:04;99271.88;;;28.09;45.32
55470;BME280;41334;47.872;16.384;2023-08-17T09:04:07;99276.75;;;29.11;43.82
55470;BME280;41334;47.872;16.384;2023-08-17T09:09:10;99276.75;;;29.11;43.82
55470;BME280;41334;47.872;16.384;2023-08-17T09:14:13;99263.25;;;30.26;34.88
55470;BME280;41334;47.872;16.384;2023-08-17T09:19:15;99266.66;;;30.21;35.63
55470;BME280;41334;47.872;16.384;2023-08-17T09:24:17;99263.78;;;29.92;35.72
55470;BME280;41334;47.872;16.384;2023-08-17T09:29:20;99257.75;;;30.90;35.19
55470;BME280;41334;47.872;16.384;2023-08-17T09:34:23;99257.16;;;30.82;34.76
55470;BME280;41334;47.872;16.384;2023-08-17T09:39:25;99256.06;;;30.63;34.25
55470;BME280;41334;47.872;16.384;2023-08-17T09:44:27;99250.69;;;31.45;34.07
55470;BME280;41334;47.872;16.384;2023-08-17T09:49:32;99241.69;;;30.38;35.59
55470;BME280;41334;47.872;16.384;2023-08-17T09:54:39;99250.13;;;30.70;34.72
55470;BME280;41334;47.872;16.384;2023-08-17T09:59:42;99240.00;;;30.95;35.82
55470;BME280;41334;47.872;16.384;2023-08-17T10:04:50;99239.78;;;30.47;37.15
55470;BME280;41334;47.872;16.384;2023-08-17T10:10:04;99236.81;;;30.51;37.14
55470;BME280;41334;47.872;16.384;2023-08-17T10:16:22;99234.03;;;30.76;35.42
55470;BME280;41334;47.872;16.384;2023-08-17T10:26:36;99231.53;;;31.17;35.41
55470;BME280;41334;47.872;16.384;2023-08-17T10:31:38;99227.31;;;31.21;35.42
55470;BME280;41334;47.872;16.384;2023-08-17T10:36:42;99227.78;;;30.52;33.92
55470;BME280;41334;47.872;16.384;2023-08-17T10:41:46;99223.88;;;29.55;36.12
55470;BME280;41334;47.872;16.384;2023-08-17T10:46:52;99221.81;;;30.89;35.45
55470;BME280;41334;47.872;16.384;2023-08-17T10:52:04;99206.88;;;30.68;35.32
55470;BME280;41334;47.872;16.384;2023-08-17T10:57:27;99205.66;;;31.20;35.08
55470;BME280;41334;47.872;16.384;2023-08-17T11:02:32;99211.09;;;30.64;33.44
55470;BME280;41334;47.872;16.384;2023-08-17T11:07:44;99209.03;;;30.64;34.67
55470;BME280;41334;47.872;16.384;2023-08-17T11:12:46;99211.19;;;30.18;34.82
55470;BME280;41334;47.872;16.384;2023-08-17T11:17:53;99205.72;;;29.78;37.63
55470;BME280;41334;47.872;16.384;2023-08-17T11:22:57;99204.94;;;29.62;37.79
55470;BME280;41334;47.872;16.384;2023-08-17T11:28:03;99210.63;;;29.78;36.35
55470;BME280;41334;47.872;16.384;2023-08-17T11:33:06;99209.63;;;30.72;35.18
55470;BME280;41334;47.872;16.384;2023-08-17T11:38:09;99196.09;;;29.72;33.95
55470;BME280;41334;47.872;16.384;2023-08-17T11:43:11;99196.50;;;30.03;33.74
55470;BME280;41334;47.872;16.384;2023-08-17T11:48:13;99201.09;;;30.43;36.76
55470;BME280;41334;47.872;16.384;2023-08-17T11:53:18;99195.38;;;29.68;35.78
55470;BME280;41334;47.872;16.384;2023-08-17T11:58:42;99192.59;;;31.06;33.58
55470;BME280;41334;47.872;16.384;2023-08-17T12:03:48;99187.31;;;30.79;34.11
55470;BME280;41334;47.872;16.384;2023-08-17T12:08:50;99177.50;;;31.19;33.39
55470;BME280;41334;47.872;16.384;2023-08-17T12:13:52;99177.16;;;31.04;33.87
55470;BME280;41334;47.872;16.384;2023-08-17T12:18:55;99167.81;;;32.20;32.41
55470;BME280;41334;47.872;16.384;2023-08-17T12:23:57;99170.34;;;31.49;34.02
55470;BME280;41334;47.872;16.384;2023-08-17T12:28:59;99155.69;;;32.78;33.18
55470;BME280;41334;47.872;16.384;2023-08-17T12:34:01;99158.16;;;31.92;34.35
55470;BME280;41334;47.872;16.384;2023-08-17T12:39:04;99154.47;;;30.84;38.04
55470;BME280;41334;47.872;16.384;2023-08-17T12:44:09;99142.53;;;30.47;37.44
55470;BME280;41334;47.872;16.384;2023-08-17T12:49:18;99151.81;;;30.39;37.72
55470;BME280;41334;47.872;16.384;2023-08-17T12:54:22;99147.75;;;29.94;37.90
55470;BME280;41334;47.872;16.384;2023-08-17T12:59:24;99136.78;;;29.93;37.71
55470;BME280;41334;47.872;16.384;2023-08-17T13:04:26;99138.53;;;30.45;37.91
55470;BME280;41334;47.872;16.384;2023-08-17T13:09:28;99131.31;;;30.53;36.94
55470;BME280;41334;47.872;16.384;2023-08-17T13:14:30;99126.00;;;30.26;36.77
55470;BME280;41334;47.872;16.384;2023-08-17T13:19:31;99108.16;;;29.18;38.44
55470;BME280;41334;47.872;16.384;2023-08-17T13:24:34;99119.69;;;29.76;37.95
55470;BME280;41334;47.872;16.384;2023-08-17T13:29:35;99114.56;;;30.26;37.34
55470;BME280;41334;47.872;16.384;2023-08-17T13:34:39;99114.50;;;29.71;39.09
55470;BME280;41334;47.872;16.384;2023-08-17T13:39:43;99112.72;;;29.48;40.44
55470;BME280;41334;47.872;16.384;2023-08-17T13:44:45;99109.91;;;29.90;39.47
55470;BME280;41334;47.872;16.384;2023-08-17T13:49:49;99100.75;;;29.37;39.21
55470;BME280;41334;47.872;16.384;2023-08-17T13:54:51;99105.31;;;29.35;39.41
55470;BME280;41334;47.872;16.384;2023-08-17T13:59:53;99103.28;;;29.02;39.66
55470;BME280;41334;47.872;16.384;2023-08-17T14:04:55;99098.91;;;28.98;40.52
55470;BME280;41334;47.872;16.384;2023-08-17T14:09:57;99096.66;;;29.38;39.96
55470;BME280;41334;47.872;16.384;2023-08-17T14:15:11;99092.25;;;29.50;38.81
55470;BME280;41334;47.872;16.384;2023-08-17T14:20:13;99089.19;;;29.28;38.13
55470;BME280;41334;47.872;16.384;2023-08-17T14:25:17;99082.31;;;29.09;39.41
55470;BME280;41334;47.872;16.384;2023-08-17T14:30:19;99091.25;;;29.56;39.52
55470;BME280;41334;47.872;16.384;2023-08-17T14:35:21;99087.59;;;29.85;37.93
55470;BME280;41334;47.872;16.384;2023-08-17T14:40:23;99087.78;;;30.07;37.10
55470;BME280;41334;47.872;16.384;2023-08-17T14:45:25;99083.78;;;30.04;37.02
55470;BME280;41334;47.872;16.384;2023-08-17T14:50:26;99090.09;;;30.25;36.84
55470;BME280;41334;47.872;16.384;2023-08-17T14:55:30;99081.69;;;30.47;36.45
55470;BME280;41334;47.872;16.384;2023-08-17T15:00:32;99077.22;;;30.71;36.75
55470;BME280;41334;47.872;16.384;2023-08-17T15:05:38;99069.09;;;30.57;35.52
55470;BME280;41334;47.872;16.384;2023-08-17T15:10:40;99066.00;;;30.64;36.55
55470;BME280;41334;47.872;16.384;2023-08-17T15:15:41;99061.06;;;31.03;35.46
55470;BME280;41334;47.872;16.384;2023-08-17T15:20:44;99050.53;;;30.87;35.38
55470;BME280;41334;47.872;16.384;2023-08-17T15:25:46;99046.19;;;30.82;37.07
55470;BME280;41334;47.872;16.384;2023-08-17T15:30:59;99047.19;;;29.99;38.72
55470;BME280;41334;47.872;16.384;2023-08-17T15:36:05;99041.63;;;28.56;39.10
55470;BME280;41334;47.872;16.384;2023-08-17T15:41:07;99040.94;;;29.01;39.54
55470;BME280;41334;47.872;16.384;2023-08-17T15:46:13;99033.47;;;27.86;41.54
55470;BME280;41334;47.872;16.384;2023-08-17T15:51:17;99034.00;;;27.61;41.35
55470;BME280;41334;47.872;16.384;2023-08-17T15:56:19;99035.91;;;28.04;41.65
55470;BME280;41334;47.872;16.384;2023-08-17T16:01:21;99035.25;;;27.60;41.69
55470;BME280;41334;47.872;16.384;2023-08-17T16:06:23;99036.25;;;28.25;41.58
55470;BME280;41334;47.872;16.384;2023-08-17T16:11:25;99033.88;;;28.57;40.14
55470;BME280;41334;47.872;16.384;2023-08-17T16:16:27;99035.94;;;28.40;39.18
55470;BME280;41334;47.872;16.384;2023-08-17T16:21:29;99030.94;;;28.44;38.92
55470;BME280;41334;47.872;16.384;2023-08-17T16:26:31;99021.84;;;28.16;39.90
55470;BME280;41334;47.872;16.384;2023-08-17T16:31:36;99020.66;;;28.14;39.84
55470;BME280;41334;47.872;16.384;2023-08-17T16:36:38;99023.53;;;28.30;41.00
55470;BME280;41334;47.872;16.384;2023-08-17T16:41:40;99018.94;;;28.52;39.57
55470;BME280;41334;47.872;16.384;2023-08-17T16:46:42;99015.97;;;28.56;40.15
55470;BME280;41334;47.872;16.384;2023-08-17T16:51:44;99015.19;;;28.56;39.99
55470;BME280;41334;47.872;16.384;2023-08-17T16:56:46;99028.44;;;28.30;40.96
55470;BME280;41334;47.872;16.384;2023-08-17T17:01:54;99014.47;;;27.99;41.35
55470;BME280;41334;47.872;16.384;2023-08-17T17:06:56;99009.25;;;27.78;41.60
55470;BME280;41334;47.872;16.384;2023-08-17T17:11:58;99008.66;;;27.46;42.91
55470;BME280;41334;47.872;16.384;2023-08-17T17:17:00;99007.25;;;27.15;43.76
55470;BME280;41334;47.872;16.384;2023-08-17T17:22:02;99004.59;;;27.67;42.25
55470;BME280;41334;47.872;16.384;2023-08-17T17:27:05;99012.44;;;27.80;43.24
55470;BME280;41334;47.872;16.384;2023-08-17T17:32:06;99009.25;;;27.78;44.08
55470;BME280;41334;47.872;16.384;2023-08-17T17:37:08;99016.28;;;27.10;45.74
55470;BME280;41334;47.872;16.384;2023-08-17T17:42:10;99015.03;;;26.40;48.36
55470;BME280;41334;47.872;16.384;2023-08-17T17:47:12;99026.38;;;25.83;49.32
55470;BME280;41334;47.872;16.384;2023-08-17T17:52:14;99043.16;;;25.36;50.78
55470;BME280;41334;47.872;16.384;2023-08-17T17:57:16;99051.22;;;24.96;51.89
55470;BME280;41334;47.872;16.384;2023-08-17T18:02:24;99043.47;;;24.59;52.90
55470;BME280;41334;47.872;16.384;2023-08-17T18:07:27;99055.81;;;24.27;53.71
55470;BME280;41334;47.872;16.384;2023-08-17T18:12:29;99067.28;;;24.02;54.44
55470;BME280;41334;47.872;16.384;2023-08-17T18:17:32;99081.53;;;23.81;55.48
55470;BME280;41334;47.872;16.384;2023-08-17T18:22:33;99085.59;;;23.66;56.18
55470;BME280;41334;47.872;16.384;2023-08-17T18:27:36;99073.53;;;23.44;56.78
55470;BME280;41334;47.872;16.384;2023-08-17T18:32:41;99083.69;;;23.23;57.59
55470;BME280;41334;47.872;16.384;2023-08-17T18:37:43;99091.00;;;23.10;57.70
55470;BME280;41334;47.872;16.384;2023-08-17T18:42:48;99094.59;;;22.96;58.18
55470;BME280;41334;47.872;16.384;2023-08-17T18:47:50;99103.88;;;22.86;58.20
55470;BME280;41334;47.872;16.384;2023-08-17T18:52:52;99110.34;;;22.72;58.69
55470;BME280;41334;47.872;16.384;2023-08-17T18:57:54;99107.50;;;22.62;59.27
55470;BME280;41334;47.872;16.384;2023-08-17T19:02:57;99106.69;;;22.50;59.96
55470;BME280;41334;47.872;16.384;2023-08-17T19:08:01;99117.97;;;22.36;60.17
55470;BME280;41334;47.872;16.384;2023-08-17T19:13:03;99127.97;;;22.26;59.68
55470;BME280;41334;47.872;16.384;2023-08-17T19:18:06;99127.94;;;22.16;60.90
55470;BME280;41334;47.872;16.384;2023-08-17T19:23:14;99122.28;;;22.09;60.42
55470;BME280;41334;47.872;16.384;2023-08-17T19:28:16;99127.47;;;21.96;62.24
55470;BME280;41334;47.872;16.384;2023-08-17T19:33:18;99124.19;;;21.83;61.04
55470;BME280;41334;47.872;16.384;2023-08-17T19:38:22;99137.44;;;21.75;61.44
55470;BME280;41334;47.872;16.384;2023-08-17T19:43:24;99135.41;;;21.65;61.62
55470;BME280;41334;47.872;16.384;2023-08-17T19:48:29;99128.03;;;21.53;61.90
55470;BME280;41334;47.872;16.384;2023-08-17T19:53:31;99140.88;;;21.44;62.88
55470;BME280;41334;47.872;16.384;2023-08-17T19:58:33;99140.41;;;21.35;64.19
55470;BME280;41334;47.872;16.384;2023-08-17T20:03:35;99138.38;;;21.32;62.15
55470;BME280;41334;47.872;16.384;2023-08-17T20:08:37;99140.34;;;21.27;62.24
55470;BME280;41334;47.872;16.384;2023-08-17T20:13:39;99128.22;;;21.20;63.13
55470;BME280;41334;47.872;16.384;2023-08-17T20:18:41;99131.31;;;21.04;63.14
55470;BME280;41334;47.872;16.384;2023-08-17T20:23:43;99133.28;;;20.96;63.38
55470;BME280;41334;47.872;16.384;2023-08-17T20:28:45;99121.94;;;20.89;62.94
55470;BME280;41334;47.872;16.384;2023-08-17T20:33:48;99132.78;;;20.87;63.82
55470;BME280;41334;47.872;16.384;2023-08-17T20:38:49;99125.84;;;20.78;63.57
55470;BME280;41334;47.872;16.384;2023-08-17T20:43:53;99125.75;;;20.67;64.17
55470;BME280;41334;47.872;16.384;2023-08-17T20:48:55;99132.88;;;20.57;65.72
55470;BME280;41334;47.872;16.384;2023-08-17T20:53:58;99140.03;;;20.47;65.42
55470;BME280;41334;47.872;16.384;2023-08-17T20:59:00;99140.88;;;20.48;65.69
55470;BME280;41334;47.872;16.384;2023-08-17T21:04:02;99140.81;;;20.44;66.24
55470;BME280;41334;47.872;16.384;2023-08-17T21:09:04;99144.84;;;20.43;67.30
55470;BME280;41334;47.872;16.384;2023-08-17T21:14:06;99144.03;;;20.43;66.66
55470;BME280;41334;47.872;16.384;2023-08-17T21:19:08;99144.03;;;20.43;66.15
55470;BME280;41334;47.872;16.384;2023-08-17T21:24:12;99140.34;;;20.39;67.15
55470;BME280;41334;47.872;16.384;2023-08-17T21:29:14;99135.06;;;20.34;65.70
55470;BME280;41334;47.872;16.384;2023-08-17T21:34:16;99130.66;;;20.33;65.76
55470;BME280;41334;47.872;16.384;2023-08-17T21:39:21;99138.66;;;20.31;65.77
55470;BME280;41334;47.872;16.384;2023-08-17T21:44:23;99132.16;;;20.23;67.43
55470;BME280;41334;47.872;16.384;2023-08-17T21:49:26;99144.66;;;19.95;66.59
55470;BME280;41334;47.872;16.384;2023-08-17T21:54:28;99153.03;;;19.92;68.52
55470;BME280;41334;47.872;16.384;2023-08-17T21:59:30;99150.50;;;19.83;67.28
55470;BME280;41334;47.872;16.384;2023-08-17T22:04:32;99146.00;;;19.75;67.15
55470;BME280;41334;47.872;16.384;2023-08-17T22:09:34;99142.22;;;19.64;66.74
55470;BME280;41334;47.872;16.384;2023-08-17T22:14:38;99146.78;;;19.45;68.37
55470;BME280;41334;47.872;16.384;2023-08-17T22:19:40;99145.06;;;19.37;68.35
55470;BME280;41334;47.872;16.384;2023-08-17T22:24:42;99134.84;;;19.26;69.91
55470;BME280;41334;47.872;16.384;2023-08-17T22:29:52;99148.25;;;19.13;68.67
55470;BME280;41334;47.872;16.384;2023-08-17T22:34:54;99154.19;;;19.08;68.51
55470;BME280;41334;47.872;16.384;2023-08-17T22:39:56;99144.47;;;19.02;69.05
55470;BME280;41334;47.872;16.384;2023-08-17T22:44:57;99139.97;;;18.97;69.70
55470;BME280;41334;47.872;16.384;2023-08-17T22:49:59;99135.88;;;18.91;70.38
55470;BME280;41334;47.872;16.384;2023-08-17T22:55:01;99140.19;;;18.85;70.83
55470;BME280;41334;47.872;16.384;2023-08-17T23:00:04;99148.84;;;18.76;70.75
55470;BME280;41334;47.872;16.384;2023-08-17T23:05:08;99147.56;;;18.70;71.74
55470;BME280;41334;47.872;16.384;2023-08-17T23:10:10;99155.47;;;18.64;70.43
55470;BME280;41334;47.872;16.384;2023-08-17T23:15:12;99151.47;;;18.65;70.66
55470;BME280;41334;47.872;16.384;2023-08-17T23:20:14;99155.16;;;18.70;70.60
55470;BME280;41334;47.872;16.384;2023-08-17T23:25:16;99157.53;;;18.67;71.61
55470;BME280;41334;47.872;16.384;2023-08-17T23:30:17;99148.63;;;18.62;70.87
55470;BME280;41334;47.872;16.384;2023-08-17T23:35:20;99152.53;;;18.57;70.33
55470;BME280;41334;47.872;16.384;2023-08-17T23:40:22;99153.66;;;18.53;70.57
55470;BME280;41334;47.872;16.384;2023-08-17T23:45:24;99157.97;;;18.47;73.01
55470;BME280;41334;47.872;16.384;2023-08-17T23:50:26;99150.03;;;18.33;73.18
55470;BME280;41334;47.872;16.384;2023-08-17T23:55:28;99151.66;;;18.34;73.48
